sensor_id;sensor_type;location;lat;lon;timestamp;P1;durP1;ratioP1;P2;durP2;ratioP2
18239;SDS011;9244;50.828;4.718;2023-08-07T00:00:25;6.20;;;3.10;;
18239;SDS011;9244;50.828;4.718;2023-08-07T00:02:51;10.03;;;3.43;;
18239;SDS011;9244;50.828;4.718;2023-08-07T00:05:16;7.63;;;2.50;;
18239;SDS011;9244;50.828;4.718;2023-08-07T00:07:42;6.10;;;2.80;;
18239;SDS011;9244;50.828;4.718;2023-08-07T00:10:08;6.80;;;3.00;;
18239;SDS011;9244;50.828;4.718;2023-08-07T00:12:34;8.90;;;3.50;;
18239;SDS011;9244;50.828;4.718;2023-08-07T00:15:01;7.13;;;2.80;;
18239;SDS011;9244;50.828;4.718;2023-08-07T00:17:27;10.37;;;3.13;;
18239;SDS011;9244;50.828;4.718;2023-08-07T00:19:52;7.23;;;2.87;;
18239;SDS011;9244;50.828;4.718;2023-08-07T00:22:18;8.23;;;2.90;;
18239;SDS011;9244;50.828;4.718;2023-08-07T00:24:44;7.47;;;3.63;;
18239;SDS011;9244;50.828;4.718;2023-08-07T00:27:09;7.37;;;3.03;;
18239;SDS011;9244;50.828;4.718;2023-08-07T00:29:36;7.47;;;2.73;;
18239;SDS011;9244;50.828;4.718;2023-08-07T00:32:02;7.60;;;3.00;;
18239;SDS011;9244;50.828;4.718;2023-08-07T00:34:29;7.90;;;3.10;;
18239;SDS011;9244;50.828;4.718;2023-08-07T00:36:55;9.20;;;3.43;;
18239;SDS011;9244;50.828;4.718;2023-08-07T00:39:20;8.83;;;3.57;;
18239;SDS011;9244;50.828;4.718;2023-08-07T00:41:46;10.47;;;2.90;;
18239;SDS011;9244;50.828;4.718;2023-08-07T00:44:12;6.37;;;3.43;;
18239;SDS011;9244;50.828;4.718;2023-08-07T00:46:38;6.70;;;3.03;;
18239;SDS011;9244;50.828;4.718;2023-08-07T00:49:06;9.57;;;2.97;;
18239;SDS011;9244;50.828;4.718;2023-08-07T00:51:34;6.87;;;3.30;;
18239;SDS011;9244;50.828;4.718;2023-08-07T00:54:00;7.60;;;3.10;;
18239;SDS011;9244;50.828;4.718;2023-08-07T00:56:28;8.47;;;2.97;;
18239;SDS011;9244;50.828;4.718;2023-08-07T00:58:55;6.10;;;2.83;;
18239;SDS011;9244;50.828;4.718;2023-08-07T01:01:21;6.53;;;2.83;;
18239;SDS011;9244;50.828;4.718;2023-08-07T01:03:47;5.30;;;2.77;;
18239;SDS011;9244;50.828;4.718;2023-08-07T01:06:14;6.70;;;2.93;;
18239;SDS011;9244;50.828;4.718;2023-08-07T01:08:39;9.10;;;2.80;;
18239;SDS011;9244;50.828;4.718;2023-08-07T01:13:51;7.87;;;3.27;;
18239;SDS011;9244;50.828;4.718;2023-08-07T01:16:34;9.43;;;2.63;;
18239;SDS011;9244;50.828;4.718;2023-08-07T01:19:08;6.87;;;3.00;;
18239;SDS011;9244;50.828;4.718;2023-08-07T01:21:43;6.23;;;2.33;;
18239;SDS011;9244;50.828;4.718;2023-08-07T01:24:10;6.73;;;2.77;;
18239;SDS011;9244;50.828;4.718;2023-08-07T01:26:36;3.93;;;2.30;;
18239;SDS011;9244;50.828;4.718;2023-08-07T01:29:48;6.53;;;2.90;;
18239;SDS011;9244;50.828;4.718;2023-08-07T01:32:00;6.17;;;2.97;;
18239;SDS011;9244;50.828;4.718;2023-08-07T01:34:31;9.13;;;2.90;;
18239;SDS011;9244;50.828;4.718;2023-08-07T01:36:58;2.93;;;2.17;;
18239;SDS011;9244;50.828;4.718;2023-08-07T01:39:26;6.77;;;2.73;;
18239;SDS011;9244;50.828;4.718;2023-08-07T01:41:52;6.73;;;3.20;;
18239;SDS011;9244;50.828;4.718;2023-08-07T01:44:18;5.93;;;2.60;;
18239;SDS011;9244;50.828;4.718;2023-08-07T01:46:43;8.83;;;2.67;;
18239;SDS011;9244;50.828;4.718;2023-08-07T01:49:09;6.97;;;2.80;;
18239;SDS011;9244;50.828;4.718;2023-08-07T01:51:35;7.20;;;3.20;;
18239;SDS011;9244;50.828;4.718;2023-08-07T01:54:00;6.03;;;2.40;;
18239;SDS011;9244;50.828;4.718;2023-08-07T01:56:26;6.67;;;2.47;;
18239;SDS011;9244;50.828;4.718;2023-08-07T01:58:51;8.30;;;3.07;;
18239;SDS011;9244;50.828;4.718;2023-08-07T02:01:17;6.33;;;3.03;;
18239;SDS011;9244;50.828;4.718;2023-08-07T02:03:42;4.63;;;2.90;;
18239;SDS011;9244;50.828;4.718;2023-08-07T02:06:08;6.37;;;2.47;;
18239;SDS011;9244;50.828;4.718;2023-08-07T02:08:34;5.83;;;2.60;;
18239;SDS011;9244;50.828;4.718;2023-08-07T02:10:59;4.77;;;2.20;;
18239;SDS011;9244;50.828;4.718;2023-08-07T02:13:26;5.63;;;2.53;;
18239;SDS011;9244;50.828;4.718;2023-08-07T02:15:52;7.97;;;2.63;;
18239;SDS011;9244;50.828;4.718;2023-08-07T02:18:17;7.63;;;2.60;;
18239;SDS011;9244;50.828;4.718;2023-08-07T02:20:43;5.77;;;2.30;;
18239;SDS011;9244;50.828;4.718;2023-08-07T02:23:10;5.20;;;2.87;;
18239;SDS011;9244;50.828;4.718;2023-08-07T02:25:36;5.73;;;2.27;;
18239;SDS011;9244;50.828;4.718;2023-08-07T02:28:02;7.43;;;3.17;;
18239;SDS011;9244;50.828;4.718;2023-08-07T02:30:28;4.10;;;2.43;;
18239;SDS011;9244;50.828;4.718;2023-08-07T02:32:55;5.20;;;2.33;;
18239;SDS011;9244;50.828;4.718;2023-08-07T02:35:20;6.63;;;2.30;;
18239;SDS011;9244;50.828;4.718;2023-08-07T02:37:46;4.10;;;2.37;;
18239;SDS011;9244;50.828;4.718;2023-08-07T02:40:12;4.13;;;2.30;;
18239;SDS011;9244;50.828;4.718;2023-08-07T02:42:40;5.07;;;2.53;;
18239;SDS011;9244;50.828;4.718;2023-08-07T02:45:06;4.97;;;2.33;;
18239;SDS011;9244;50.828;4.718;2023-08-07T02:47:32;7.87;;;2.60;;
18239;SDS011;9244;50.828;4.718;2023-08-07T02:49:58;6.53;;;2.20;;
18239;SDS011;9244;50.828;4.718;2023-08-07T02:52:24;3.63;;;1.83;;
18239;SDS011;9244;50.828;4.718;2023-08-07T02:54:50;11.30;;;2.40;;
18239;SDS011;9244;50.828;4.718;2023-08-07T02:57:15;4.33;;;2.57;;
18239;SDS011;9244;50.828;4.718;2023-08-07T02:59:41;5.03;;;2.50;;
18239;SDS011;9244;50.828;4.718;2023-08-07T03:02:07;3.87;;;1.80;;
18239;SDS011;9244;50.828;4.718;2023-08-07T03:04:32;8.50;;;2.40;;
18239;SDS011;9244;50.828;4.718;2023-08-07T03:06:58;6.13;;;2.20;;
18239;SDS011;9244;50.828;4.718;2023-08-07T03:09:24;4.70;;;2.03;;
18239;SDS011;9244;50.828;4.718;2023-08-07T03:11:50;6.00;;;2.27;;
18239;SDS011;9244;50.828;4.718;2023-08-07T03:14:15;6.20;;;2.20;;
18239;SDS011;9244;50.828;4.718;2023-08-07T03:16:41;3.93;;;2.00;;
18239;SDS011;9244;50.828;4.718;2023-08-07T03:19:07;4.97;;;2.50;;
18239;SDS011;9244;50.828;4.718;2023-08-07T03:21:32;3.70;;;2.00;;
18239;SDS011;9244;50.828;4.718;2023-08-07T03:23:58;6.03;;;3.07;;
18239;SDS011;9244;50.828;4.718;2023-08-07T03:26:23;8.03;;;2.40;;
18239;SDS011;9244;50.828;4.718;2023-08-07T03:28:49;5.20;;;2.20;;
18239;SDS011;9244;50.828;4.718;2023-08-07T03:31:16;6.33;;;2.60;;
18239;SDS011;9244;50.828;4.718;2023-08-07T03:33:41;5.23;;;2.57;;
18239;SDS011;9244;50.828;4.718;2023-08-07T03:36:07;4.40;;;2.40;;
18239;SDS011;9244;50.828;4.718;2023-08-07T03:38:34;8.07;;;2.20;;
18239;SDS011;9244;50.828;4.718;2023-08-07T03:40:59;5.93;;;2.20;;
18239;SDS011;9244;50.828;4.718;2023-08-07T03:43:25;3.30;;;2.20;;
18239;SDS011;9244;50.828;4.718;2023-08-07T03:45:57;4.00;;;1.90;;
18239;SDS011;9244;50.828;4.718;2023-08-07T03:48:22;6.10;;;2.17;;
18239;SDS011;9244;50.828;4.718;2023-08-07T03:50:48;4.43;;;2.00;;
18239;SDS011;9244;50.828;4.718;2023-08-07T03:53:13;4.40;;;2.10;;
18239;SDS011;9244;50.828;4.718;2023-08-07T03:55:39;8.37;;;2.40;;
18239;SDS011;9244;50.828;4.718;2023-08-07T03:58:06;8.00;;;2.50;;
18239;SDS011;9244;50.828;4.718;2023-08-07T04:00:32;6.93;;;2.23;;
18239;SDS011;9244;50.828;4.718;2023-08-07T04:02:58;4.17;;;2.10;;
18239;SDS011;9244;50.828;4.718;2023-08-07T04:05:24;2.67;;;1.83;;
18239;SDS011;9244;50.828;4.718;2023-08-07T04:07:49;4.30;;;2.43;;
18239;SDS011;9244;50.828;4.718;2023-08-07T04:10:15;4.90;;;2.50;;
18239;SDS011;9244;50.828;4.718;2023-08-07T04:12:41;7.50;;;2.50;;
18239;SDS011;9244;50.828;4.718;2023-08-07T04:15:06;5.37;;;2.40;;
18239;SDS011;9244;50.828;4.718;2023-08-07T04:17:33;4.70;;;2.20;;
18239;SDS011;9244;50.828;4.718;2023-08-07T04:19:59;6.53;;;2.90;;
18239;SDS011;9244;50.828;4.718;2023-08-07T04:22:25;5.07;;;2.40;;
18239;SDS011;9244;50.828;4.718;2023-08-07T04:24:50;7.53;;;2.40;;
18239;SDS011;9244;50.828;4.718;2023-08-07T04:27:16;12.60;;;2.37;;
18239;SDS011;9244;50.828;4.718;2023-08-07T04:29:42;5.87;;;1.80;;
18239;SDS011;9244;50.828;4.718;2023-08-07T04:32:08;4.03;;;2.50;;
18239;SDS011;9244;50.828;4.718;2023-08-07T04:34:33;4.73;;;2.10;;
18239;SDS011;9244;50.828;4.718;2023-08-07T04:37:00;3.13;;;2.30;;
18239;SDS011;9244;50.828;4.718;2023-08-07T04:39:25;5.67;;;2.13;;
18239;SDS011;9244;50.828;4.718;2023-08-07T04:41:51;7.03;;;2.50;;
18239;SDS011;9244;50.828;4.718;2023-08-07T04:44:17;7.73;;;2.23;;
18239;SDS011;9244;50.828;4.718;2023-08-07T04:46:42;5.80;;;2.40;;
18239;SDS011;9244;50.828;4.718;2023-08-07T04:49:08;5.00;;;2.30;;
18239;SDS011;9244;50.828;4.718;2023-08-07T04:51:34;4.60;;;2.60;;
18239;SDS011;9244;50.828;4.718;2023-08-07T04:53:59;6.27;;;2.67;;
18239;SDS011;9244;50.828;4.718;2023-08-07T04:56:25;5.03;;;2.17;;
18239;SDS011;9244;50.828;4.718;2023-08-07T04:58:51;6.40;;;2.50;;
18239;SDS011;9244;50.828;4.718;2023-08-07T05:01:17;7.37;;;2.90;;
18239;SDS011;9244;50.828;4.718;2023-08-07T05:03:43;5.60;;;2.37;;
18239;SDS011;9244;50.828;4.718;2023-08-07T05:06:08;6.33;;;2.77;;
18239;SDS011;9244;50.828;4.718;2023-08-07T05:08:34;6.57;;;2.60;;
18239;SDS011;9244;50.828;4.718;2023-08-07T05:11:00;4.33;;;2.10;;
18239;SDS011;9244;50.828;4.718;2023-08-07T05:13:26;5.80;;;2.47;;
18239;SDS011;9244;50.828;4.718;2023-08-07T05:15:51;5.83;;;2.70;;
18239;SDS011;9244;50.828;4.718;2023-08-07T05:18:17;5.63;;;2.47;;
18239;SDS011;9244;50.828;4.718;2023-08-07T05:20:43;8.13;;;2.67;;
18239;SDS011;9244;50.828;4.718;2023-08-07T05:23:08;5.63;;;2.57;;
18239;SDS011;9244;50.828;4.718;2023-08-07T05:25:35;2.80;;;1.90;;
18239;SDS011;9244;50.828;4.718;2023-08-07T05:28:01;6.70;;;2.73;;
18239;SDS011;9244;50.828;4.718;2023-08-07T05:30:26;8.67;;;2.57;;
18239;SDS011;9244;50.828;4.718;2023-08-07T05:32:52;6.67;;;2.83;;
18239;SDS011;9244;50.828;4.718;2023-08-07T05:35:17;4.97;;;1.93;;
18239;SDS011;9244;50.828;4.718;2023-08-07T05:37:43;4.10;;;2.37;;
18239;SDS011;9244;50.828;4.718;2023-08-07T05:40:09;3.97;;;1.80;;
18239;SDS011;9244;50.828;4.718;2023-08-07T05:42:37;4.15;;;1.85;;
18239;SDS011;9244;50.828;4.718;2023-08-07T05:45:03;3.65;;;1.63;;
18239;SDS011;9244;50.828;4.718;2023-08-07T05:47:29;2.55;;;1.50;;
18239;SDS011;9244;50.828;4.718;2023-08-07T05:49:54;5.43;;;1.80;;
18239;SDS011;9244;50.828;4.718;2023-08-07T05:52:20;4.03;;;1.58;;
18239;SDS011;9244;50.828;4.718;2023-08-07T05:54:45;3.90;;;1.55;;
18239;SDS011;9244;50.828;4.718;2023-08-07T05:57:12;5.25;;;1.80;;
18239;SDS011;9244;50.828;4.718;2023-08-07T05:59:37;4.05;;;2.03;;
18239;SDS011;9244;50.828;4.718;2023-08-07T06:02:05;3.67;;;1.65;;
18239;SDS011;9244;50.828;4.718;2023-08-07T06:04:31;6.05;;;2.22;;
18239;SDS011;9244;50.828;4.718;2023-08-07T06:06:57;3.88;;;1.85;;
18239;SDS011;9244;50.828;4.718;2023-08-07T06:09:22;3.33;;;1.88;;
18239;SDS011;9244;50.828;4.718;2023-08-07T06:11:48;4.70;;;1.90;;
18239;SDS011;9244;50.828;4.718;2023-08-07T06:14:14;4.53;;;1.80;;
18239;SDS011;9244;50.828;4.718;2023-08-07T06:16:39;4.90;;;2.15;;
18239;SDS011;9244;50.828;4.718;2023-08-07T06:19:05;5.63;;;2.00;;
18239;SDS011;9244;50.828;4.718;2023-08-07T06:21:30;5.32;;;2.17;;
18239;SDS011;9244;50.828;4.718;2023-08-07T06:23:56;4.47;;;2.03;;
18239;SDS011;9244;50.828;4.718;2023-08-07T06:26:22;3.47;;;1.67;;
18239;SDS011;9244;50.828;4.718;2023-08-07T06:28:47;4.53;;;2.17;;
18239;SDS011;9244;50.828;4.718;2023-08-07T06:31:15;3.75;;;1.85;;
18239;SDS011;9244;50.828;4.718;2023-08-07T06:33:41;5.60;;;1.77;;
18239;SDS011;9244;50.828;4.718;2023-08-07T06:36:07;4.18;;;1.90;;
18239;SDS011;9244;50.828;4.718;2023-08-07T06:38:36;4.13;;;1.80;;
18239;SDS011;9244;50.828;4.718;2023-08-07T06:41:02;3.80;;;1.90;;
18239;SDS011;9244;50.828;4.718;2023-08-07T06:43:29;4.80;;;1.80;;
18239;SDS011;9244;50.828;4.718;2023-08-07T06:45:55;4.68;;;1.88;;
18239;SDS011;9244;50.828;4.718;2023-08-07T06:48:21;3.45;;;1.65;;
18239;SDS011;9244;50.828;4.718;2023-08-07T06:50:47;6.05;;;2.72;;
18239;SDS011;9244;50.828;4.718;2023-08-07T06:53:14;3.90;;;1.70;;
18239;SDS011;9244;50.828;4.718;2023-08-07T06:55:43;4.32;;;2.10;;
18239;SDS011;9244;50.828;4.718;2023-08-07T06:58:09;6.07;;;2.00;;
18239;SDS011;9244;50.828;4.718;2023-08-07T07:00:35;3.55;;;1.90;;
18239;SDS011;9244;50.828;4.718;2023-08-07T07:03:01;6.03;;;1.77;;
18239;SDS011;9244;50.828;4.718;2023-08-07T07:05:28;6.03;;;1.92;;
18239;SDS011;9244;50.828;4.718;2023-08-07T07:07:55;4.95;;;1.85;;
18239;SDS011;9244;50.828;4.718;2023-08-07T07:10:21;3.30;;;1.80;;
18239;SDS011;9244;50.828;4.718;2023-08-07T07:12:46;2.78;;;1.60;;
18239;SDS011;9244;50.828;4.718;2023-08-07T07:15:12;2.67;;;1.30;;
18239;SDS011;9244;50.828;4.718;2023-08-07T07:17:38;5.90;;;1.95;;
18239;SDS011;9244;50.828;4.718;2023-08-07T07:20:03;4.20;;;1.88;;
18239;SDS011;9244;50.828;4.718;2023-08-07T07:22:30;4.05;;;1.92;;
18239;SDS011;9244;50.828;4.718;2023-08-07T07:24:55;2.83;;;1.75;;
18239;SDS011;9244;50.828;4.718;2023-08-07T07:27:21;3.30;;;1.88;;
18239;SDS011;9244;50.828;4.718;2023-08-07T07:29:51;3.88;;;1.80;;
18239;SDS011;9244;50.828;4.718;2023-08-07T07:32:17;4.00;;;2.00;;
18239;SDS011;9244;50.828;4.718;2023-08-07T07:34:43;3.20;;;1.65;;
18239;SDS011;9244;50.828;4.718;2023-08-07T07:37:08;4.28;;;1.70;;
18239;SDS011;9244;50.828;4.718;2023-08-07T07:39:35;6.45;;;2.10;;
18239;SDS011;9244;50.828;4.718;2023-08-07T07:42:01;5.40;;;1.63;;
18239;SDS011;9244;50.828;4.718;2023-08-07T07:44:26;3.25;;;1.83;;
18239;SDS011;9244;50.828;4.718;2023-08-07T07:46:52;6.93;;;1.80;;
18239;SDS011;9244;50.828;4.718;2023-08-07T07:49:18;3.33;;;1.90;;
18239;SDS011;9244;50.828;4.718;2023-08-07T07:51:43;2.35;;;1.80;;
18239;SDS011;9244;50.828;4.718;2023-08-07T07:54:09;2.53;;;1.88;;
18239;SDS011;9244;50.828;4.718;2023-08-07T07:56:35;1.80;;;1.63;;
18239;SDS011;9244;50.828;4.718;2023-08-07T07:59:01;3.72;;;1.80;;
18239;SDS011;9244;50.828;4.718;2023-08-07T08:01:27;3.28;;;1.52;;
18239;SDS011;9244;50.828;4.718;2023-08-07T08:03:53;3.38;;;1.98;;
18239;SDS011;9244;50.828;4.718;2023-08-07T08:06:19;4.38;;;1.77;;
18239;SDS011;9244;50.828;4.718;2023-08-07T08:08:44;3.05;;;1.63;;
18239;SDS011;9244;50.828;4.718;2023-08-07T08:11:10;5.22;;;1.95;;
18239;SDS011;9244;50.828;4.718;2023-08-07T08:13:36;4.93;;;2.05;;
18239;SDS011;9244;50.828;4.718;2023-08-07T08:16:04;3.58;;;2.13;;
18239;SDS011;9244;50.828;4.718;2023-08-07T08:18:30;2.53;;;1.50;;
18239;SDS011;9244;50.828;4.718;2023-08-07T08:20:55;3.10;;;1.60;;
18239;SDS011;9244;50.828;4.718;2023-08-07T08:23:21;4.60;;;1.75;;
18239;SDS011;9244;50.828;4.718;2023-08-07T08:25:47;3.65;;;1.83;;
18239;SDS011;9244;50.828;4.718;2023-08-07T08:28:14;4.82;;;1.85;;
18239;SDS011;9244;50.828;4.718;2023-08-07T08:30:39;5.28;;;2.03;;
18239;SDS011;9244;50.828;4.718;2023-08-07T08:33:05;4.00;;;1.88;;
18239;SDS011;9244;50.828;4.718;2023-08-07T08:35:31;6.05;;;2.20;;
18239;SDS011;9244;50.828;4.718;2023-08-07T08:37:57;5.35;;;2.30;;
18239;SDS011;9244;50.828;4.718;2023-08-07T08:40:23;2.75;;;1.80;;
18239;SDS011;9244;50.828;4.718;2023-08-07T08:42:49;3.67;;;1.73;;
18239;SDS011;9244;50.828;4.718;2023-08-07T08:45:16;4.18;;;2.20;;
18239;SDS011;9244;50.828;4.718;2023-08-07T08:47:43;2.78;;;1.58;;
18239;SDS011;9244;50.828;4.718;2023-08-07T08:50:12;3.03;;;1.67;;
18239;SDS011;9244;50.828;4.718;2023-08-07T08:52:43;4.35;;;1.85;;
18239;SDS011;9244;50.828;4.718;2023-08-07T08:55:10;3.72;;;1.92;;
18239;SDS011;9244;50.828;4.718;2023-08-07T08:57:37;3.55;;;1.92;;
18239;SDS011;9244;50.828;4.718;2023-08-07T09:00:04;4.00;;;2.10;;
18239;SDS011;9244;50.828;4.718;2023-08-07T09:02:44;2.85;;;1.50;;
18239;SDS011;9244;50.828;4.718;2023-08-07T09:05:10;3.40;;;1.70;;
18239;SDS011;9244;50.828;4.718;2023-08-07T09:07:36;5.10;;;2.20;;
18239;SDS011;9244;50.828;4.718;2023-08-07T09:10:03;4.80;;;2.03;;
18239;SDS011;9244;50.828;4.718;2023-08-07T09:12:29;4.55;;;1.95;;
18239;SDS011;9244;50.828;4.718;2023-08-07T09:14:58;3.95;;;1.40;;
18239;SDS011;9244;50.828;4.718;2023-08-07T09:17:27;2.60;;;1.60;;
18239;SDS011;9244;50.828;4.718;2023-08-07T09:19:54;4.68;;;1.90;;
18239;SDS011;9244;50.828;4.718;2023-08-07T09:22:20;6.22;;;1.52;;
18239;SDS011;9244;50.828;4.718;2023-08-07T09:24:46;3.83;;;1.80;;
18239;SDS011;9244;50.828;4.718;2023-08-07T09:27:12;5.57;;;2.15;;
18239;SDS011;9244;50.828;4.718;2023-08-07T09:29:41;3.83;;;1.58;;
18239;SDS011;9244;50.828;4.718;2023-08-07T09:32:09;3.42;;;1.70;;
18239;SDS011;9244;50.828;4.718;2023-08-07T09:34:41;2.08;;;1.50;;
18239;SDS011;9244;50.828;4.718;2023-08-07T09:37:10;2.72;;;1.90;;
18239;SDS011;9244;50.828;4.718;2023-08-07T09:39:36;3.13;;;1.38;;
18239;SDS011;9244;50.828;4.718;2023-08-07T09:42:05;3.45;;;1.60;;
18239;SDS011;9244;50.828;4.718;2023-08-07T09:44:39;6.05;;;1.90;;
18239;SDS011;9244;50.828;4.718;2023-08-07T09:47:22;3.58;;;1.60;;
18239;SDS011;9244;50.828;4.718;2023-08-07T09:49:48;2.58;;;1.75;;
18239;SDS011;9244;50.828;4.718;2023-08-07T09:52:18;2.17;;;1.67;;
18239;SDS011;9244;50.828;4.718;2023-08-07T09:54:44;2.88;;;1.65;;
18239;SDS011;9244;50.828;4.718;2023-08-07T09:57:10;3.63;;;1.80;;
18239;SDS011;9244;50.828;4.718;2023-08-07T09:59:35;3.47;;;1.80;;
18239;SDS011;9244;50.828;4.718;2023-08-07T10:02:01;4.28;;;1.85;;
18239;SDS011;9244;50.828;4.718;2023-08-07T10:04:28;2.42;;;1.50;;
18239;SDS011;9244;50.828;4.718;2023-08-07T10:06:54;4.25;;;1.67;;
18239;SDS011;9244;50.828;4.718;2023-08-07T10:09:20;2.70;;;1.60;;
18239;SDS011;9244;50.828;4.718;2023-08-07T10:11:46;2.30;;;1.58;;
18239;SDS011;9244;50.828;4.718;2023-08-07T10:14:14;2.88;;;1.63;;
18239;SDS011;9244;50.828;4.718;2023-08-07T10:16:40;2.00;;;1.77;;
18239;SDS011;9244;50.828;4.718;2023-08-07T10:19:07;3.25;;;1.60;;
18239;SDS011;9244;50.828;4.718;2023-08-07T10:21:36;1.95;;;1.58;;
18239;SDS011;9244;50.828;4.718;2023-08-07T10:24:04;1.95;;;1.38;;
18239;SDS011;9244;50.828;4.718;2023-08-07T10:26:33;4.10;;;1.60;;
18239;SDS011;9244;50.828;4.718;2023-08-07T10:29:05;2.35;;;1.48;;
18239;SDS011;9244;50.828;4.718;2023-08-07T10:31:35;3.40;;;1.50;;
18239;SDS011;9244;50.828;4.718;2023-08-07T10:34:02;2.10;;;1.40;;
18239;SDS011;9244;50.828;4.718;2023-08-07T10:36:34;2.08;;;1.50;;
18239;SDS011;9244;50.828;4.718;2023-08-07T10:39:13;5.68;;;1.70;;
18239;SDS011;9244;50.828;4.718;2023-08-07T10:41:41;1.52;;;1.10;;
18239;SDS011;9244;50.828;4.718;2023-08-07T10:46:49;4.40;;;1.80;;
18239;SDS011;9244;50.828;4.718;2023-08-07T10:49:52;2.20;;;1.58;;
18239;SDS011;9244;50.828;4.718;2023-08-07T10:52:12;1.55;;;1.10;;
18239;SDS011;9244;50.828;4.718;2023-08-07T10:54:49;3.08;;;1.52;;
18239;SDS011;9244;50.828;4.718;2023-08-07T10:57:16;4.13;;;1.85;;
18239;SDS011;9244;50.828;4.718;2023-08-07T11:02:24;8.88;;;4.20;;
18239;SDS011;9244;50.828;4.718;2023-08-07T11:04:52;2.00;;;1.30;;
18239;SDS011;9244;50.828;4.718;2023-08-07T11:07:22;4.43;;;2.50;;
18239;SDS011;9244;50.828;4.718;2023-08-07T11:09:49;11.65;;;4.35;;
18239;SDS011;9244;50.828;4.718;2023-08-07T11:12:15;5.32;;;2.58;;
18239;SDS011;9244;50.828;4.718;2023-08-07T11:14:41;3.42;;;2.05;;
18239;SDS011;9244;50.828;4.718;2023-08-07T11:17:06;3.90;;;1.50;;
18239;SDS011;9244;50.828;4.718;2023-08-07T11:19:33;1.35;;;1.08;;
18239;SDS011;9244;50.828;4.718;2023-08-07T11:21:58;3.03;;;1.48;;
18239;SDS011;9244;50.828;4.718;2023-08-07T11:24:26;2.30;;;1.10;;
18239;SDS011;9244;50.828;4.718;2023-08-07T11:26:52;1.92;;;1.33;;
18239;SDS011;9244;50.828;4.718;2023-08-07T11:29:20;2.42;;;1.40;;
18239;SDS011;9244;50.828;4.718;2023-08-07T11:31:49;3.70;;;1.33;;
18239;SDS011;9244;50.828;4.718;2023-08-07T11:34:17;2.67;;;1.50;;
18239;SDS011;9244;50.828;4.718;2023-08-07T11:36:44;1.52;;;1.10;;
18239;SDS011;9244;50.828;4.718;2023-08-07T11:39:10;1.80;;;1.33;;
18239;SDS011;9244;50.828;4.718;2023-08-07T11:41:36;2.42;;;1.30;;
18239;SDS011;9244;50.828;4.718;2023-08-07T11:44:02;2.85;;;1.27;;
18239;SDS011;9244;50.828;4.718;2023-08-07T11:46:27;1.60;;;1.20;;
18239;SDS011;9244;50.828;4.718;2023-08-07T11:48:54;2.83;;;1.40;;
18239;SDS011;9244;50.828;4.718;2023-08-07T11:51:21;2.03;;;1.30;;
18239;SDS011;9244;50.828;4.718;2023-08-07T11:53:47;2.92;;;1.55;;
18239;SDS011;9244;50.828;4.718;2023-08-07T11:56:13;2.30;;;1.50;;
18239;SDS011;9244;50.828;4.718;2023-08-07T11:58:43;1.88;;;1.38;;
18239;SDS011;9244;50.828;4.718;2023-08-07T12:01:14;2.35;;;1.20;;
18239;SDS011;9244;50.828;4.718;2023-08-07T12:03:53;1.65;;;1.35;;
18239;SDS011;9244;50.828;4.718;2023-08-07T12:06:33;1.42;;;1.20;;
18239;SDS011;9244;50.828;4.718;2023-08-07T12:09:00;2.67;;;1.70;;
18239;SDS011;9244;50.828;4.718;2023-08-07T12:11:28;2.95;;;1.20;;
18239;SDS011;9244;50.828;4.718;2023-08-07T12:13:54;1.58;;;1.20;;
18239;SDS011;9244;50.828;4.718;2023-08-07T12:16:20;2.90;;;1.33;;
18239;SDS011;9244;50.828;4.718;2023-08-07T12:18:50;9.00;;;4.72;;
18239;SDS011;9244;50.828;4.718;2023-08-07T12:21:17;15.68;;;4.93;;
18239;SDS011;9244;50.828;4.718;2023-08-07T12:23:49;4.45;;;3.00;;
18239;SDS011;9244;50.828;4.718;2023-08-07T12:26:15;2.78;;;1.30;;
18239;SDS011;9244;50.828;4.718;2023-08-07T12:28:41;3.88;;;1.60;;
18239;SDS011;9244;50.828;4.718;2023-08-07T12:31:07;2.92;;;1.40;;
18239;SDS011;9244;50.828;4.718;2023-08-07T12:33:33;2.28;;;1.38;;
18239;SDS011;9244;50.828;4.718;2023-08-07T12:35:59;6.80;;;3.42;;
18239;SDS011;9244;50.828;4.718;2023-08-07T12:38:25;2.03;;;1.30;;
18239;SDS011;9244;50.828;4.718;2023-08-07T12:40:51;3.97;;;1.20;;
18239;SDS011;9244;50.828;4.718;2023-08-07T12:43:17;1.40;;;1.30;;
18239;SDS011;9244;50.828;4.718;2023-08-07T12:45:43;7.53;;;3.42;;
18239;SDS011;9244;50.828;4.718;2023-08-07T12:48:08;2.50;;;1.63;;
18239;SDS011;9244;50.828;4.718;2023-08-07T12:50:34;6.00;;;3.47;;
18239;SDS011;9244;50.828;4.718;2023-08-07T12:53:00;2.08;;;1.50;;
18239;SDS011;9244;50.828;4.718;2023-08-07T12:55:26;3.97;;;1.85;;
18239;SDS011;9244;50.828;4.718;2023-08-07T12:57:53;3.45;;;1.60;;
18239;SDS011;9244;50.828;4.718;2023-08-07T13:00:19;1.98;;;1.40;;
18239;SDS011;9244;50.828;4.718;2023-08-07T13:02:45;8.07;;;3.85;;
18239;SDS011;9244;50.828;4.718;2023-08-07T13:05:12;1.50;;;1.23;;
18239;SDS011;9244;50.828;4.718;2023-08-07T13:07:38;2.08;;;0.98;;
18239;SDS011;9244;50.828;4.718;2023-08-07T13:10:04;3.10;;;1.30;;
18239;SDS011;9244;50.828;4.718;2023-08-07T13:12:34;3.05;;;1.25;;
18239;SDS011;9244;50.828;4.718;2023-08-07T13:15:01;2.85;;;1.27;;
18239;SDS011;9244;50.828;4.718;2023-08-07T13:17:27;3.17;;;1.95;;
18239;SDS011;9244;50.828;4.718;2023-08-07T13:19:53;10.85;;;5.07;;
18239;SDS011;9244;50.828;4.718;2023-08-07T13:22:18;1.92;;;1.20;;
18239;SDS011;9244;50.828;4.718;2023-08-07T13:24:44;1.50;;;0.93;;
18239;SDS011;9244;50.828;4.718;2023-08-07T13:27:10;3.42;;;1.17;;
18239;SDS011;9244;50.828;4.718;2023-08-07T13:29:35;1.67;;;1.25;;
18239;SDS011;9244;50.828;4.718;2023-08-07T13:32:02;1.23;;;1.02;;
18239;SDS011;9244;50.828;4.718;2023-08-07T13:34:34;0.88;;;0.88;;
18239;SDS011;9244;50.828;4.718;2023-08-07T13:37:06;2.63;;;1.10;;
18239;SDS011;9244;50.828;4.718;2023-08-07T13:39:34;2.63;;;1.13;;
18239;SDS011;9244;50.828;4.718;2023-08-07T13:42:00;2.83;;;1.10;;
18239;SDS011;9244;50.828;4.718;2023-08-07T13:44:25;3.33;;;1.10;;
18239;SDS011;9244;50.828;4.718;2023-08-07T13:46:51;0.98;;;0.90;;
18239;SDS011;9244;50.828;4.718;2023-08-07T13:49:17;1.83;;;1.52;;
18239;SDS011;9244;50.828;4.718;2023-08-07T13:51:45;1.58;;;1.10;;
18239;SDS011;9244;50.828;4.718;2023-08-07T13:54:11;1.17;;;0.90;;
18239;SDS011;9244;50.828;4.718;2023-08-07T13:56:37;2.67;;;1.10;;
18239;SDS011;9244;50.828;4.718;2023-08-07T13:59:02;1.75;;;0.95;;
18239;SDS011;9244;50.828;4.718;2023-08-07T14:01:28;3.22;;;0.95;;
18239;SDS011;9244;50.828;4.718;2023-08-07T14:03:54;1.30;;;1.10;;
18239;SDS011;9244;50.828;4.718;2023-08-07T14:06:19;1.20;;;1.05;;
18239;SDS011;9244;50.828;4.718;2023-08-07T14:08:45;1.05;;;0.93;;
18239;SDS011;9244;50.828;4.718;2023-08-07T14:11:11;2.13;;;0.98;;
18239;SDS011;9244;50.828;4.718;2023-08-07T14:13:39;1.35;;;0.93;;
18239;SDS011;9244;50.828;4.718;2023-08-07T14:16:05;1.23;;;0.85;;
18239;SDS011;9244;50.828;4.718;2023-08-07T14:18:31;2.15;;;1.00;;
18239;SDS011;9244;50.828;4.718;2023-08-07T14:20:57;0.63;;;0.63;;
18239;SDS011;9244;50.828;4.718;2023-08-07T14:23:22;2.08;;;0.80;;
18239;SDS011;9244;50.828;4.718;2023-08-07T14:25:48;2.47;;;0.70;;
18239;SDS011;9244;50.828;4.718;2023-08-07T14:28:16;2.45;;;0.80;;
18239;SDS011;9244;50.828;4.718;2023-08-07T14:30:42;0.82;;;0.82;;
18239;SDS011;9244;50.828;4.718;2023-08-07T14:33:07;1.13;;;0.82;;
18239;SDS011;9244;50.828;4.718;2023-08-07T14:35:33;1.25;;;0.90;;
18239;SDS011;9244;50.828;4.718;2023-08-07T14:37:59;1.80;;;0.70;;
18239;SDS011;9244;50.828;4.718;2023-08-07T14:40:24;2.08;;;0.80;;
18239;SDS011;9244;50.828;4.718;2023-08-07T14:42:51;2.00;;;0.80;;
18239;SDS011;9244;50.828;4.718;2023-08-07T14:45:17;2.58;;;0.93;;
18239;SDS011;9244;50.828;4.718;2023-08-07T14:47:43;1.70;;;0.80;;
18239;SDS011;9244;50.828;4.718;2023-08-07T14:50:09;1.10;;;0.70;;
18239;SDS011;9244;50.828;4.718;2023-08-07T14:52:35;1.25;;;0.60;;
18239;SDS011;9244;50.828;4.718;2023-08-07T14:55:01;1.63;;;0.73;;
18239;SDS011;9244;50.828;4.718;2023-08-07T14:57:27;1.48;;;0.80;;
18239;SDS011;9244;50.828;4.718;2023-08-07T14:59:53;1.52;;;0.85;;
18239;SDS011;9244;50.828;4.718;2023-08-07T15:02:18;1.05;;;0.60;;
18239;SDS011;9244;50.828;4.718;2023-08-07T15:04:44;1.65;;;0.90;;